sensor_id;sensor_type;location;lat;lon;timestamp;temperature;humidity
10722;DHT22;5412;59.450;18.124;2023-08-01T00:00:45;16.20;99.90
10722;DHT22;5412;59.450;18.124;2023-08-01T00:03:11;16.30;99.90
10722;DHT22;5412;59.450;18.124;2023-08-01T00:05:39;16.30;99.90
10722;DHT22;5412;59.450;18.124;2023-08-01T00:08:10;16.30;99.90
10722;DHT22;5412;59.450;18.124;2023-08-01T00:10:37;16.20;99.90
10722;DHT22;5412;59.450;18.124;2023-08-01T00:13:03;16.30;99.90
10722;DHT22;5412;59.450;18.124;2023-08-01T00:15:28;16.20;99.90
10722;DHT22;5412;59.450;18.124;2023-08-01T00:17:54;16.30;99.90
10722;DHT22;5412;59.450;18.124;2023-08-01T00:20:20;16.30;99.90
10722;DHT22;5412;59.450;18.124;2023-08-01T00:22:45;16.30;99.90
10722;DHT22;5412;59.450;18.124;2023-08-01T00:25:11;16.40;99.90
10722;DHT22;5412;59.450;18.124;2023-08-01T00:27:37;16.40;99.90
10722;DHT22;5412;59.450;18.124;2023-08-01T00:30:03;16.50;99.90
10722;DHT22;5412;59.450;18.124;2023-08-01T00:32:29;16.50;99.90
10722;DHT22;5412;59.450;18.124;2023-08-01T00:34:55;16.50;99.90
10722;DHT22;5412;59.450;18.124;2023-08-01T00:37:20;16.50;99.90
10722;DHT22;5412;59.450;18.124;2023-08-01T00:39:46;16.50;99.90
10722;DHT22;5412;59.450;18.124;2023-08-01T00:42:12;16.50;99.90
10722;DHT22;5412;59.450;18.124;2023-08-01T00:44:38;16.50;99.90
10722;DHT22;5412;59.450;18.124;2023-08-01T00:47:04;16.60;99.90
10722;DHT22;5412;59.450;18.124;2023-08-01T00:49:30;16.50;99.90
10722;DHT22;5412;59.450;18.124;2023-08-01T00:51:56;16.50;99.90
10722;DHT22;5412;59.450;18.124;2023-08-01T00:54:22;16.50;99.90
10722;DHT22;5412;59.450;18.124;2023-08-01T00:56:48;16.50;99.90
10722;DHT22;5412;59.450;18.124;2023-08-01T00:59:14;16.60;99.90
10722;DHT22;5412;59.450;18.124;2023-08-01T01:01:40;16.60;99.90
10722;DHT22;5412;59.450;18.124;2023-08-01T01:04:05;16.60;99.90
10722;DHT22;5412;59.450;18.124;2023-08-01T01:06:41;16.50;99.90
10722;DHT22;5412;59.450;18.124;2023-08-01T01:09:19;16.50;99.90
10722;DHT22;5412;59.450;18.124;2023-08-01T01:11:46;16.50;99.90
10722;DHT22;5412;59.450;18.124;2023-08-01T01:14:12;16.60;99.90
10722;DHT22;5412;59.450;18.124;2023-08-01T01:16:38;16.60;99.90
10722;DHT22;5412;59.450;18.124;2023-08-01T01:19:07;16.60;99.90
10722;DHT22;5412;59.450;18.124;2023-08-01T01:21:34;16.60;99.90
10722;DHT22;5412;59.450;18.124;2023-08-01T01:24:01;16.50;99.90
10722;DHT22;5412;59.450;18.124;2023-08-01T01:26:28;16.60;99.90
10722;DHT22;5412;59.450;18.124;2023-08-01T01:28:54;16.50;99.90
10722;DHT22;5412;59.450;18.124;2023-08-01T01:31:21;16.50;99.90
10722;DHT22;5412;59.450;18.124;2023-08-01T01:33:47;16.40;99.90
10722;DHT22;5412;59.450;18.124;2023-08-01T01:36:12;16.40;99.90
10722;DHT22;5412;59.450;18.124;2023-08-01T01:38:38;16.40;99.90
10722;DHT22;5412;59.450;18.124;2023-08-01T01:41:04;16.40;99.90
10722;DHT22;5412;59.450;18.124;2023-08-01T01:43:29;16.40;99.90
10722;DHT22;5412;59.450;18.124;2023-08-01T01:45:55;16.30;99.90
10722;DHT22;5412;59.450;18.124;2023-08-01T01:48:21;16.30;99.90
10722;DHT22;5412;59.450;18.124;2023-08-01T01:50:47;16.30;99.90
10722;DHT22;5412;59.450;18.124;2023-08-01T01:53:14;16.30;99.90
10722;DHT22;5412;59.450;18.124;2023-08-01T01:55:39;16.20;99.90
10722;DHT22;5412;59.450;18.124;2023-08-01T01:58:05;16.10;99.90
10722;DHT22;5412;59.450;18.124;2023-08-01T02:00:31;16.20;99.90
10722;DHT22;5412;59.450;18.124;2023-08-01T02:02:57;16.20;99.90
10722;DHT22;5412;59.450;18.124;2023-08-01T02:05:23;16.20;99.90
10722;DHT22;5412;59.450;18.124;2023-08-01T02:07:48;16.20;99.90
10722;DHT22;5412;59.450;18.124;2023-08-01T02:10:14;16.20;99.90
10722;DHT22;5412;59.450;18.124;2023-08-01T02:12:40;16.20;99.90
10722;DHT22;5412;59.450;18.124;2023-08-01T02:15:06;16.20;99.90
10722;DHT22;5412;59.450;18.124;2023-08-01T02:17:32;16.20;99.90
10722;DHT22;5412;59.450;18.124;2023-08-01T02:19:57;16.20;99.90
10722;DHT22;5412;59.450;18.124;2023-08-01T02:22:25;16.20;99.90
10722;DHT22;5412;59.450;18.124;2023-08-01T02:24:51;16.10;99.90
10722;DHT22;5412;59.450;18.124;2023-08-01T02:27:17;16.10;99.90
10722;DHT22;5412;59.450;18.124;2023-08-01T02:29:42;16.10;99.90
10722;DHT22;5412;59.450;18.124;2023-08-01T02:32:09;16.10;99.90
10722;DHT22;5412;59.450;18.124;2023-08-01T02:34:35;16.10;99.90
10722;DHT22;5412;59.450;18.124;2023-08-01T02:37:01;16.10;99.90
10722;DHT22;5412;59.450;18.124;2023-08-01T02:39:26;16.10;99.90
10722;DHT22;5412;59.450;18.124;2023-08-01T02:41:52;16.10;99.90
10722;DHT22;5412;59.450;18.124;2023-08-01T02:44:18;16.10;99.90
10722;DHT22;5412;59.450;18.124;2023-08-01T02:46:43;16.10;99.90
10722;DHT22;5412;59.450;18.124;2023-08-01T02:49:09;16.10;99.90
10722;DHT22;5412;59.450;18.124;2023-08-01T02:51:35;16.20;99.90
10722;DHT22;5412;59.450;18.124;2023-08-01T02:54:01;16.20;99.90
10722;DHT22;5412;59.450;18.124;2023-08-01T02:56:26;16.20;99.90
10722;DHT22;5412;59.450;18.124;2023-08-01T02:58:53;16.20;99.90
10722;DHT22;5412;59.450;18.124;2023-08-01T03:01:20;16.20;99.90
10722;DHT22;5412;59.450;18.124;2023-08-01T03:03:46;16.20;99.90
10722;DHT22;5412;59.450;18.124;2023-08-01T03:06:12;16.20;99.90
10722;DHT22;5412;59.450;18.124;2023-08-01T03:08:38;16.20;99.90
10722;DHT22;5412;59.450;18.124;2023-08-01T03:11:04;16.20;99.90
10722;DHT22;5412;59.450;18.124;2023-08-01T03:13:30;16.20;99.90
10722;DHT22;5412;59.450;18.124;2023-08-01T03:15:56;16.20;99.90
10722;DHT22;5412;59.450;18.124;2023-08-01T03:18:22;16.20;99.90
10722;DHT22;5412;59.450;18.124;2023-08-01T03:20:47;16.20;99.90
10722;DHT22;5412;59.450;18.124;2023-08-01T03:23:13;16.20;99.90
10722;DHT22;5412;59.450;18.124;2023-08-01T03:25:39;16.20;99.90
10722;DHT22;5412;59.450;18.124;2023-08-01T03:28:04;16.20;99.90
10722;DHT22;5412;59.450;18.124;2023-08-01T03:30:34;16.30;99.90
10722;DHT22;5412;59.450;18.124;2023-08-01T03:33:01;16.30;99.90
10722;DHT22;5412;59.450;18.124;2023-08-01T03:35:28;16.30;99.90
10722;DHT22;5412;59.450;18.124;2023-08-01T03:37:54;16.10;99.90
10722;DHT22;5412;59.450;18.124;2023-08-01T03:40:19;16.30;99.90
10722;DHT22;5412;59.450;18.124;2023-08-01T03:42:45;16.30;99.90
10722;DHT22;5412;59.450;18.124;2023-08-01T03:45:11;16.40;99.90
10722;DHT22;5412;59.450;18.124;2023-08-01T03:47:37;16.40;99.90
10722;DHT22;5412;59.450;18.124;2023-08-01T03:50:03;16.40;99.90
10722;DHT22;5412;59.450;18.124;2023-08-01T03:52:28;16.40;99.90
10722;DHT22;5412;59.450;18.124;2023-08-01T03:54:55;16.40;99.90
10722;DHT22;5412;59.450;18.124;2023-08-01T03:57:21;16.50;99.90
10722;DHT22;5412;59.450;18.124;2023-08-01T03:59:47;16.50;99.90
10722;DHT22;5412;59.450;18.124;2023-08-01T04:02:12;16.60;99.90
10722;DHT22;5412;59.450;18.124;2023-08-01T04:04:38;16.60;99.90
10722;DHT22;5412;59.450;18.124;2023-08-01T04:07:04;16.60;99.90
10722;DHT22;5412;59.450;18.124;2023-08-01T04:09:30;16.60;99.90
10722;DHT22;5412;59.450;18.124;2023-08-01T04:11:55;16.60;99.90
10722;DHT22;5412;59.450;18.124;2023-08-01T04:14:21;16.70;99.90
10722;DHT22;5412;59.450;18.124;2023-08-01T04:16:47;16.80;99.90
10722;DHT22;5412;59.450;18.124;2023-08-01T04:19:12;16.80;99.90
10722;DHT22;5412;59.450;18.124;2023-08-01T04:21:38;16.80;99.90
10722;DHT22;5412;59.450;18.124;2023-08-01T04:24:04;16.90;99.90
10722;DHT22;5412;59.450;18.124;2023-08-01T04:26:30;16.90;99.90
10722;DHT22;5412;59.450;18.124;2023-08-01T04:28:56;16.90;99.90
10722;DHT22;5412;59.450;18.124;2023-08-01T04:31:21;16.90;99.90
10722;DHT22;5412;59.450;18.124;2023-08-01T04:33:47;16.90;99.90
10722;DHT22;5412;59.450;18.124;2023-08-01T04:36:13;16.90;99.90
10722;DHT22;5412;59.450;18.124;2023-08-01T04:38:39;16.90;99.90
10722;DHT22;5412;59.450;18.124;2023-08-01T04:41:04;17.00;99.90
10722;DHT22;5412;59.450;18.124;2023-08-01T04:43:30;16.50;99.90
10722;DHT22;5412;59.450;18.124;2023-08-01T04:45:56;17.00;99.90
10722;DHT22;5412;59.450;18.124;2023-08-01T04:48:23;17.10;99.90
10722;DHT22;5412;59.450;18.124;2023-08-01T04:50:50;17.20;99.90
10722;DHT22;5412;59.450;18.124;2023-08-01T04:53:16;17.20;99.90
10722;DHT22;5412;59.450;18.124;2023-08-01T04:55:41;17.30;99.90
10722;DHT22;5412;59.450;18.124;2023-08-01T04:58:07;17.40;99.90
10722;DHT22;5412;59.450;18.124;2023-08-01T05:00:33;17.40;99.90
10722;DHT22;5412;59.450;18.124;2023-08-01T05:02:58;17.50;99.90
10722;DHT22;5412;59.450;18.124;2023-08-01T05:05:24;17.50;99.90
10722;DHT22;5412;59.450;18.124;2023-08-01T05:07:50;17.70;99.90
10722;DHT22;5412;59.450;18.124;2023-08-01T05:10:15;17.90;99.90
10722;DHT22;5412;59.450;18.124;2023-08-01T05:12:41;18.00;99.90
10722;DHT22;5412;59.450;18.124;2023-08-01T05:15:07;18.00;99.90
10722;DHT22;5412;59.450;18.124;2023-08-01T05:17:33;18.00;99.90
10722;DHT22;5412;59.450;18.124;2023-08-01T05:19:59;18.10;99.90
10722;DHT22;5412;59.450;18.124;2023-08-01T05:22:24;18.00;99.90
10722;DHT22;5412;59.450;18.124;2023-08-01T05:24:50;18.00;99.90
10722;DHT22;5412;59.450;18.124;2023-08-01T05:27:16;18.00;99.90
10722;DHT22;5412;59.450;18.124;2023-08-01T05:29:41;18.00;99.90
10722;DHT22;5412;59.450;18.124;2023-08-01T05:32:07;18.10;99.90
10722;DHT22;5412;59.450;18.124;2023-08-01T05:34:33;18.10;99.90
10722;DHT22;5412;59.450;18.124;2023-08-01T05:36:58;18.20;99.90
10722;DHT22;5412;59.450;18.124;2023-08-01T05:39:24;18.30;99.90
10722;DHT22;5412;59.450;18.124;2023-08-01T05:41:50;18.20;99.90
10722;DHT22;5412;59.450;18.124;2023-08-01T05:44:16;18.30;99.90
10722;DHT22;5412;59.450;18.124;2023-08-01T05:46:42;18.40;99.90
10722;DHT22;5412;59.450;18.124;2023-08-01T05:49:07;18.40;99.90
10722;DHT22;5412;59.450;18.124;2023-08-01T05:51:33;18.40;99.90
10722;DHT22;5412;59.450;18.124;2023-08-01T05:53:59;18.50;99.90
10722;DHT22;5412;59.450;18.124;2023-08-01T05:56:25;18.50;99.90
10722;DHT22;5412;59.450;18.124;2023-08-01T05:58:50;18.40;99.90
10722;DHT22;5412;59.450;18.124;2023-08-01T06:01:16;18.30;99.90
10722;DHT22;5412;59.450;18.124;2023-08-01T06:03:42;18.30;99.90
10722;DHT22;5412;59.450;18.124;2023-08-01T06:06:08;18.30;99.90
10722;DHT22;5412;59.450;18.124;2023-08-01T06:08:34;18.20;99.90
10722;DHT22;5412;59.450;18.124;2023-08-01T06:11:00;18.20;99.90
10722;DHT22;5412;59.450;18.124;2023-08-01T06:13:26;18.20;99.90
10722;DHT22;5412;59.450;18.124;2023-08-01T06:15:51;18.40;99.90
10722;DHT22;5412;59.450;18.124;2023-08-01T06:18:17;18.30;99.90
10722;DHT22;5412;59.450;18.124;2023-08-01T06:20:43;18.40;99.90
10722;DHT22;5412;59.450;18.124;2023-08-01T06:23:09;18.50;99.90
10722;DHT22;5412;59.450;18.124;2023-08-01T06:25:34;18.60;99.90
10722;DHT22;5412;59.450;18.124;2023-08-01T06:28:00;18.70;99.90
10722;DHT22;5412;59.450;18.124;2023-08-01T06:30:26;18.80;99.90
10722;DHT22;5412;59.450;18.124;2023-08-01T06:32:52;18.80;99.90
10722;DHT22;5412;59.450;18.124;2023-08-01T06:35:17;18.80;99.90
10722;DHT22;5412;59.450;18.124;2023-08-01T06:37:43;18.90;99.90
10722;DHT22;5412;59.450;18.124;2023-08-01T06:40:10;19.00;99.90
10722;DHT22;5412;59.450;18.124;2023-08-01T06:42:35;19.00;99.90
10722;DHT22;5412;59.450;18.124;2023-08-01T06:45:01;19.00;99.90
10722;DHT22;5412;59.450;18.124;2023-08-01T06:47:27;19.10;99.90
10722;DHT22;5412;59.450;18.124;2023-08-01T06:49:53;19.10;99.90
10722;DHT22;5412;59.450;18.124;2023-08-01T06:52:19;19.20;99.90
10722;DHT22;5412;59.450;18.124;2023-08-01T06:54:45;19.30;99.90
10722;DHT22;5412;59.450;18.124;2023-08-01T06:57:10;19.20;99.90
10722;DHT22;5412;59.450;18.124;2023-08-01T06:59:36;19.30;99.90
10722;DHT22;5412;59.450;18.124;2023-08-01T07:02:02;19.30;99.90
10722;DHT22;5412;59.450;18.124;2023-08-01T07:04:28;19.30;99.90
10722;DHT22;5412;59.450;18.124;2023-08-01T07:06:54;19.30;99.90
10722;DHT22;5412;59.450;18.124;2023-08-01T07:09:19;19.50;99.90
10722;DHT22;5412;59.450;18.124;2023-08-01T07:11:45;19.50;99.90
10722;DHT22;5412;59.450;18.124;2023-08-01T07:14:11;19.60;99.90
10722;DHT22;5412;59.450;18.124;2023-08-01T07:16:36;19.90;99.90
10722;DHT22;5412;59.450;18.124;2023-08-01T07:19:02;20.00;99.90
10722;DHT22;5412;59.450;18.124;2023-08-01T07:21:28;20.10;99.90
10722;DHT22;5412;59.450;18.124;2023-08-01T07:23:54;20.20;99.90
10722;DHT22;5412;59.450;18.124;2023-08-01T07:26:20;20.40;99.90
10722;DHT22;5412;59.450;18.124;2023-08-01T07:28:46;20.60;99.90
10722;DHT22;5412;59.450;18.124;2023-08-01T07:31:11;20.40;99.90
10722;DHT22;5412;59.450;18.124;2023-08-01T07:33:37;20.40;99.90
10722;DHT22;5412;59.450;18.124;2023-08-01T07:36:03;20.20;99.90
10722;DHT22;5412;59.450;18.124;2023-08-01T07:38:29;20.00;99.90
10722;DHT22;5412;59.450;18.124;2023-08-01T07:40:57;20.00;99.90
10722;DHT22;5412;59.450;18.124;2023-08-01T07:43:27;19.90;99.90
10722;DHT22;5412;59.450;18.124;2023-08-01T07:45:56;19.90;99.90
10722;DHT22;5412;59.450;18.124;2023-08-01T07:48:22;20.10;99.90
10722;DHT22;5412;59.450;18.124;2023-08-01T07:50:47;20.30;99.90
10722;DHT22;5412;59.450;18.124;2023-08-01T07:53:13;20.30;99.90
10722;DHT22;5412;59.450;18.124;2023-08-01T07:55:39;20.30;99.90
10722;DHT22;5412;59.450;18.124;2023-08-01T07:58:04;20.40;99.90
10722;DHT22;5412;59.450;18.124;2023-08-01T08:00:30;20.40;99.90
10722;DHT22;5412;59.450;18.124;2023-08-01T08:02:59;20.30;99.90
10722;DHT22;5412;59.450;18.124;2023-08-01T08:05:25;20.10;99.90
10722;DHT22;5412;59.450;18.124;2023-08-01T08:07:50;20.00;99.90
10722;DHT22;5412;59.450;18.124;2023-08-01T08:10:19;19.90;99.90
10722;DHT22;5412;59.450;18.124;2023-08-01T08:12:44;19.90;99.90
10722;DHT22;5412;59.450;18.124;2023-08-01T08:15:10;19.90;99.90
10722;DHT22;5412;59.450;18.124;2023-08-01T08:17:36;19.90;99.90
10722;DHT22;5412;59.450;18.124;2023-08-01T08:20:03;20.00;99.90
10722;DHT22;5412;59.450;18.124;2023-08-01T08:22:29;20.00;99.90
10722;DHT22;5412;59.450;18.124;2023-08-01T08:24:54;20.00;99.90
10722;DHT22;5412;59.450;18.124;2023-08-01T08:27:20;20.00;99.90
10722;DHT22;5412;59.450;18.124;2023-08-01T08:29:46;19.80;99.90
10722;DHT22;5412;59.450;18.124;2023-08-01T08:32:12;19.90;99.90
10722;DHT22;5412;59.450;18.124;2023-08-01T08:34:37;20.00;99.90
10722;DHT22;5412;59.450;18.124;2023-08-01T08:37:05;20.00;99.90
10722;DHT22;5412;59.450;18.124;2023-08-01T08:39:31;20.00;99.90
10722;DHT22;5412;59.450;18.124;2023-08-01T08:41:56;20.10;99.90
10722;DHT22;5412;59.450;18.124;2023-08-01T08:44:22;20.10;99.90
10722;DHT22;5412;59.450;18.124;2023-08-01T08:46:55;20.20;99.90
10722;DHT22;5412;59.450;18.124;2023-08-01T08:49:26;20.10;99.90
10722;DHT22;5412;59.450;18.124;2023-08-01T08:51:52;20.10;99.90
10722;DHT22;5412;59.450;18.124;2023-08-01T08:54:19;20.20;99.90
10722;DHT22;5412;59.450;18.124;2023-08-01T08:56:46;20.20;99.90
10722;DHT22;5412;59.450;18.124;2023-08-01T08:59:12;20.20;99.90
10722;DHT22;5412;59.450;18.124;2023-08-01T09:01:39;20.30;99.90
10722;DHT22;5412;59.450;18.124;2023-08-01T09:04:06;20.50;99.90
10722;DHT22;5412;59.450;18.124;2023-08-01T09:06:37;20.90;99.90
10722;DHT22;5412;59.450;18.124;2023-08-01T09:09:14;20.90;99.90
10722;DHT22;5412;59.450;18.124;2023-08-01T09:11:46;20.90;99.90
10722;DHT22;5412;59.450;18.124;2023-08-01T09:14:12;21.10;99.90
10722;DHT22;5412;59.450;18.124;2023-08-01T09:16:40;21.30;99.90
10722;DHT22;5412;59.450;18.124;2023-08-01T09:19:06;21.40;99.90
10722;DHT22;5412;59.450;18.124;2023-08-01T09:21:33;21.50;99.90
10722;DHT22;5412;59.450;18.124;2023-08-01T09:26:38;21.50;99.90
10722;DHT22;5412;59.450;18.124;2023-08-01T09:29:05;21.50;99.90
10722;DHT22;5412;59.450;18.124;2023-08-01T09:31:33;21.40;99.90
10722;DHT22;5412;59.450;18.124;2023-08-01T09:34:00;21.30;99.90
10722;DHT22;5412;59.450;18.124;2023-08-01T09:36:26;21.30;99.90
10722;DHT22;5412;59.450;18.124;2023-08-01T09:38:52;21.10;99.90
10722;DHT22;5412;59.450;18.124;2023-08-01T09:41:23;21.10;99.90
10722;DHT22;5412;59.450;18.124;2023-08-01T09:43:50;21.10;99.90
10722;DHT22;5412;59.450;18.124;2023-08-01T09:46:16;21.00;99.90
10722;DHT22;5412;59.450;18.124;2023-08-01T09:48:41;20.90;99.90
10722;DHT22;5412;59.450;18.124;2023-08-01T09:51:12;21.00;99.90
10722;DHT22;5412;59.450;18.124;2023-08-01T09:53:55;20.90;99.90
10722;DHT22;5412;59.450;18.124;2023-08-01T09:56:26;20.90;99.90
10722;DHT22;5412;59.450;18.124;2023-08-01T09:58:54;20.90;99.90
10722;DHT22;5412;59.450;18.124;2023-08-01T10:01:22;20.80;99.90
10722;DHT22;5412;59.450;18.124;2023-08-01T10:03:51;20.90;99.90
10722;DHT22;5412;59.450;18.124;2023-08-01T10:06:19;20.90;99.90
10722;DHT22;5412;59.450;18.124;2023-08-01T10:08:46;20.90;99.90
10722;DHT22;5412;59.450;18.124;2023-08-01T10:11:17;21.10;99.90
10722;DHT22;5412;59.450;18.124;2023-08-01T10:13:44;21.30;99.90
10722;DHT22;5412;59.450;18.124;2023-08-01T10:16:10;21.70;99.90
10722;DHT22;5412;59.450;18.124;2023-08-01T10:18:37;21.80;99.90
10722;DHT22;5412;59.450;18.124;2023-08-01T10:21:06;21.80;99.90
10722;DHT22;5412;59.450;18.124;2023-08-01T10:23:35;21.90;99.90
10722;DHT22;5412;59.450;18.124;2023-08-01T10:26:04;22.00;99.90
10722;DHT22;5412;59.450;18.124;2023-08-01T10:28:33;22.20;99.90
10722;DHT22;5412;59.450;18.124;2023-08-01T10:31:13;22.10;99.90
10722;DHT22;5412;59.450;18.124;2023-08-01T10:33:40;21.80;99.90
10722;DHT22;5412;59.450;18.124;2023-08-01T10:36:13;21.80;99.90
10722;DHT22;5412;59.450;18.124;2023-08-01T10:39:05;21.90;99.90
10722;DHT22;5412;59.450;18.124;2023-08-01T10:41:35;21.80;99.90
10722;DHT22;5412;59.450;18.124;2023-08-01T10:44:08;21.90;99.90
10722;DHT22;5412;59.450;18.124;2023-08-01T10:46:57;21.80;99.90
10722;DHT22;5412;59.450;18.124;2023-08-01T10:49:43;21.70;99.90
10722;DHT22;5412;59.450;18.124;2023-08-01T10:52:35;21.70;99.90
10722;DHT22;5412;59.450;18.124;2023-08-01T10:55:02;21.80;99.90
10722;DHT22;5412;59.450;18.124;2023-08-01T10:57:34;21.80;99.90
10722;DHT22;5412;59.450;18.124;2023-08-01T10:59:59;21.90;99.90
10722;DHT22;5412;59.450;18.124;2023-08-01T11:02:27;21.90;99.90
10722;DHT22;5412;59.450;18.124;2023-08-01T11:05:01;21.80;99.90
10722;DHT22;5412;59.450;18.124;2023-08-01T11:07:27;22.00;99.90
10722;DHT22;5412;59.450;18.124;2023-08-01T11:10:12;22.30;99.90
10722;DHT22;5412;59.450;18.124;2023-08-01T11:12:40;22.40;99.90
10722;DHT22;5412;59.450;18.124;2023-08-01T11:15:08;22.50;99.90
10722;DHT22;5412;59.450;18.124;2023-08-01T11:17:39;22.60;99.90
10722;DHT22;5412;59.450;18.124;2023-08-01T11:20:06;22.60;99.90
10722;DHT22;5412;59.450;18.124;2023-08-01T11:22:33;22.50;99.90
10722;DHT22;5412;59.450;18.124;2023-08-01T11:24:59;22.50;99.90
10722;DHT22;5412;59.450;18.124;2023-08-01T11:27:26;22.50;99.90
10722;DHT22;5412;59.450;18.124;2023-08-01T11:29:53;22.40;99.90
10722;DHT22;5412;59.450;18.124;2023-08-01T11:32:19;22.40;99.90
10722;DHT22;5412;59.450;18.124;2023-08-01T11:34:48;22.50;99.90
10722;DHT22;5412;59.450;18.124;2023-08-01T11:37:17;22.50;99.90
10722;DHT22;5412;59.450;18.124;2023-08-01T11:39:43;22.30;99.90
10722;DHT22;5412;59.450;18.124;2023-08-01T11:42:17;22.30;99.90
10722;DHT22;5412;59.450;18.124;2023-08-01T11:44:43;22.40;99.90
10722;DHT22;5412;59.450;18.124;2023-08-01T11:47:16;22.30;99.90
10722;DHT22;5412;59.450;18.124;2023-08-01T11:49:49;22.40;99.90
10722;DHT22;5412;59.450;18.124;2023-08-01T11:52:25;22.40;99.90
10722;DHT22;5412;59.450;18.124;2023-08-01T11:54:52;22.30;99.90
10722;DHT22;5412;59.450;18.124;2023-08-01T11:57:17;22.30;99.90
10722;DHT22;5412;59.450;18.124;2023-08-01T11:59:47;22.30;99.90
10722;DHT22;5412;59.450;18.124;2023-08-01T12:02:23;22.40;99.90
10722;DHT22;5412;59.450;18.124;2023-08-01T12:04:50;22.50;99.90
10722;DHT22;5412;59.450;18.124;2023-08-01T12:07:16;22.70;99.90
10722;DHT22;5412;59.450;18.124;2023-08-01T12:09:41;22.80;99.90
10722;DHT22;5412;59.450;18.124;2023-08-01T12:12:09;22.90;99.90
10722;DHT22;5412;59.450;18.124;2023-08-01T12:14:40;23.10;99.90
10722;DHT22;5412;59.450;18.124;2023-08-01T12:17:06;23.30;99.90
10722;DHT22;5412;59.450;18.124;2023-08-01T12:19:32;23.30;99.90
10722;DHT22;5412;59.450;18.124;2023-08-01T12:21:59;23.30;99.90
10722;DHT22;5412;59.450;18.124;2023-08-01T12:24:25;23.40;99.90
10722;DHT22;5412;59.450;18.124;2023-08-01T12:26:50;23.40;99.90
10722;DHT22;5412;59.450;18.124;2023-08-01T12:29:16;23.60;99.90
10722;DHT22;5412;59.450;18.124;2023-08-01T12:31:42;23.70;99.90
10722;DHT22;5412;59.450;18.124;2023-08-01T12:34:08;23.60;99.90
10722;DHT22;5412;59.450;18.124;2023-08-01T12:36:33;23.70;99.90
10722;DHT22;5412;59.450;18.124;2023-08-01T12:38:59;23.70;99.90
10722;DHT22;5412;59.450;18.124;2023-08-01T12:41:25;23.70;99.90
10722;DHT22;5412;59.450;18.124;2023-08-01T12:43:50;23.90;99.90
10722;DHT22;5412;59.450;18.124;2023-08-01T12:46:16;24.10;99.90
10722;DHT22;5412;59.450;18.124;2023-08-01T12:48:43;24.30;99.90
10722;DHT22;5412;59.450;18.124;2023-08-01T12:51:09;24.50;99.90
10722;DHT22;5412;59.450;18.124;2023-08-01T12:53:35;24.60;99.90
10722;DHT22;5412;59.450;18.124;2023-08-01T12:56:00;25.00;99.90
10722;DHT22;5412;59.450;18.124;2023-08-01T12:58:26;25.20;99.90
10722;DHT22;5412;59.450;18.124;2023-08-01T13:00:53;25.00;99.90
10722;DHT22;5412;59.450;18.124;2023-08-01T13:03:19;25.20;99.90
10722;DHT22;5412;59.450;18.124;2023-08-01T13:05:45;25.30;99.90
10722;DHT22;5412;59.450;18.124;2023-08-01T13:08:11;25.00;99.90
10722;DHT22;5412;59.450;18.124;2023-08-01T13:10:38;24.40;99.90
10722;DHT22;5412;59.450;18.124;2023-08-01T13:13:04;24.10;99.90
10722;DHT22;5412;59.450;18.124;2023-08-01T13:15:30;23.90;99.90
10722;DHT22;5412;59.450;18.124;2023-08-01T13:17:56;23.80;99.90
10722;DHT22;5412;59.450;18.124;2023-08-01T13:20:22;23.80;99.90
10722;DHT22;5412;59.450;18.124;2023-08-01T13:22:49;24.10;99.90
10722;DHT22;5412;59.450;18.124;2023-08-01T13:25:16;23.80;99.90
10722;DHT22;5412;59.450;18.124;2023-08-01T13:27:42;24.00;99.90
10722;DHT22;5412;59.450;18.124;2023-08-01T13:30:08;24.60;99.90
10722;DHT22;5412;59.450;18.124;2023-08-01T13:32:34;24.40;99.90
10722;DHT22;5412;59.450;18.124;2023-08-01T13:35:00;24.00;99.90
10722;DHT22;5412;59.450;18.124;2023-08-01T13:37:26;23.80;99.90
10722;DHT22;5412;59.450;18.124;2023-08-01T13:39:53;24.00;99.90
10722;DHT22;5412;59.450;18.124;2023-08-01T13:42:19;24.30;99.90
10722;DHT22;5412;59.450;18.124;2023-08-01T13:44:44;24.90;99.90
10722;DHT22;5412;59.450;18.124;2023-08-01T13:47:10;25.30;99.90
10722;DHT22;5412;59.450;18.124;2023-08-01T13:49:36;25.50;99.90
10722;DHT22;5412;59.450;18.124;2023-08-01T13:52:03;25.60;99.90
10722;DHT22;5412;59.450;18.124;2023-08-01T13:54:29;25.80;99.90
10722;DHT22;5412;59.450;18.124;2023-08-01T13:56:55;26.00;99.90
10722;DHT22;5412;59.450;18.124;2023-08-01T13:59:20;25.90;99.90
10722;DHT22;5412;59.450;18.124;2023-08-01T14:01:46;25.80;99.90
10722;DHT22;5412;59.450;18.124;2023-08-01T14:04:12;25.50;99.90
10722;DHT22;5412;59.450;18.124;2023-08-01T14:06:41;25.60;99.90
10722;DHT22;5412;59.450;18.124;2023-08-01T14:09:10;25.90;99.90
10722;DHT22;5412;59.450;18.124;2023-08-01T14:11:37;26.30;99.90
10722;DHT22;5412;59.450;18.124;2023-08-01T14:14:03;26.50;99.90
10722;DHT22;5412;59.450;18.124;2023-08-01T14:16:29;26.80;99.90
10722;DHT22;5412;59.450;18.124;2023-08-01T14:18:55;26.50;99.90
10722;DHT22;5412;59.450;18.124;2023-08-01T14:21:20;26.00;99.90
10722;DHT22;5412;59.450;18.124;2023-08-01T14:23:46;26.20;99.90
10722;DHT22;5412;59.450;18.124;2023-08-01T14:26:13;26.00;99.90
10722;DHT22;5412;59.450;18.124;2023-08-01T14:28:38;25.90;99.90
10722;DHT22;5412;59.450;18.124;2023-08-01T14:31:04;25.60;99.90
10722;DHT22;5412;59.450;18.124;2023-08-01T14:33:30;25.30;99.90
10722;DHT22;5412;59.450;18.124;2023-08-01T14:35:56;25.40;99.90
10722;DHT22;5412;59.450;18.124;2023-08-01T14:38:22;25.70;99.90
10722;DHT22;5412;59.450;18.124;2023-08-01T14:40:48;25.60;99.90
10722;DHT22;5412;59.450;18.124;2023-08-01T14:43:14;25.50;99.90
10722;DHT22;5412;59.450;18.124;2023-08-01T14:45:40;25.40;99.90
10722;DHT22;5412;59.450;18.124;2023-08-01T14:48:07;25.60;99.90
10722;DHT22;5412;59.450;18.124;2023-08-01T14:50:33;26.00;99.90
10722;DHT22;5412;59.450;18.124;2023-08-01T14:53:00;26.20;99.90
10722;DHT22;5412;59.450;18.124;2023-08-01T14:55:28;26.10;99.90
10722;DHT22;5412;59.450;18.124;2023-08-01T14:57:54;26.30;99.90
10722;DHT22;5412;59.450;18.124;2023-08-01T15:00:20;27.10;99.90
10722;DHT22;5412;59.450;18.124;2023-08-01T15:02:46;27.00;99.90
10722;DHT22;5412;59.450;18.124;2023-08-01T15:05:13;26.60;99.90
10722;DHT22;5412;59.450;18.124;2023-08-01T15:07:39;26.60;99.90
10722;DHT22;5412;59.450;18.124;2023-08-01T15:10:05;26.90;99.90
10722;DHT22;5412;59.450;18.124;2023-08-01T15:12:31;27.40;99.90
10722;DHT22;5412;59.450;18.124;2023-08-01T15:14:57;27.70;99.90
10722;DHT22;5412;59.450;18.124;2023-08-01T15:17:23;27.90;99.90
10722;DHT22;5412;59.450;18.124;2023-08-01T15:19:49;27.70;99.90
10722;DHT22;5412;59.450;18.124;2023-08-01T15:22:16;28.10;99.90
10722;DHT22;5412;59.450;18.124;2023-08-01T15:24:42;28.30;99.90
10722;DHT22;5412;59.450;18.124;2023-08-01T15:27:08;28.90;99.90
10722;DHT22;5412;59.450;18.124;2023-08-01T15:29:34;29.40;99.90